Time;durP1;ratioP1;P1;durP2;ratioP2;P2;SDS_P1;SDS_P2;PMS_P1;PMS_P2;Temp;Humidity;BMP_temperature;BMP_pressure;BME280_temperature;BME280_humidity;BME280_pressure;Samples;Min_cycle;Max_cycle;Signal;HPM_P1;HPM_P2
2023/10/09 00:01:26;;;;;;;14.82;3.33;;;;;;;-143.21;53.77;72143.56;5130163;27;20207;-84
2023/10/09 00:03:54;;;;;;;8.65;3.08;;;;;;;-143.21;53.65;72131.69;5133964;27;20191;-84
2023/10/09 00:06:31;;;;;;;12.27;3.08;;;;;;;-143.21;53.61;72133.66;5134529;27;20227;-84
2023/10/09 00:09:11;;;;;;;9.43;3.17;;;;;;;-143.21;54.04;72155.47;5134606;27;20198;-85
2023/10/09 00:11:41;;;;;;;11.65;2.90;;;;;;;-143.21;54.16;72161.41;5134670;27;20240;-84
2023/10/09 00:14:10;;;;;;;7.50;3.00;;;;;;;-143.21;54.21;72161.41;5134157;27;20203;-85
2023/10/09 00:16:43;;;;;;;7.03;2.47;;;;;;;-143.21;54.24;72163.41;5134127;27;20278;-84
2023/10/09 00:19:19;;;;;;;12.27;2.95;;;;;;;-143.21;53.98;72161.41;5134504;27;20279;-84
2023/10/09 00:21:46;;;;;;;10.80;3.08;;;;;;;-143.21;54.22;72167.38;5134165;27;20322;-82
2023/10/09 00:24:23;;;;;;;5.80;3.00;;;;;;;-143.21;54.80;72185.22;5133854;27;20210;-82
2023/10/09 00:26:51;;;;;;;4.50;2.42;;;;;;;-143.21;54.85;72193.16;5134565;27;20245;-83
2023/10/09 00:29:22;;;;;;;9.85;2.53;;;;;;;-143.21;54.83;72195.13;5133839;27;20207;-83
2023/10/09 00:31:55;;;;;;;9.55;2.53;;;;;;;-143.21;54.93;72197.13;5134141;27;20203;-84
2023/10/09 00:34:26;;;;;;;5.43;2.30;;;;;;;-143.21;55.16;72211.00;5129951;27;20217;-77
2023/10/09 00:36:53;;;;;;;8.85;2.80;;;;;;;-143.21;55.22;72211.00;5128253;27;20199;-76
2023/10/09 00:39:40;;;;;;;7.60;2.65;;;;;;;-143.21;55.24;72212.97;5131608;27;20207;-75
2023/10/09 00:42:08;;;;;;;8.02;2.92;;;;;;;-143.21;55.22;72220.91;5131674;27;20235;-82
2023/10/09 00:44:39;;;;;;;7.18;2.88;;;;;;;-143.21;55.19;72216.94;5132874;27;20585;-83
2023/10/09 00:47:20;;;;;;;4.32;2.33;;;;;;;-143.21;55.21;72224.88;5133404;27;20604;-81
2023/10/09 00:49:50;;;;;;;8.77;2.50;;;;;;;-143.21;55.32;72230.81;5133219;27;20274;-82
2023/10/09 00:52:26;;;;;;;5.20;2.40;;;;;;;-143.21;55.64;72240.75;5133798;27;20211;-83
2023/10/09 00:55:00;;;;;;;6.15;2.70;;;;;;;-143.21;55.37;72254.63;5133733;27;20252;-83
2023/10/09 00:57:31;;;;;;;4.55;2.40;;;;;;;-143.21;55.58;72264.53;5130596;27;20707;-83
2023/10/09 01:00:12;;;;;;;8.57;2.50;;;;;;;-143.21;55.67;72262.56;5132057;27;20847;-84
2023/10/09 01:02:42;;;;;;;5.97;2.72;;;;;;;-143.21;55.28;72266.53;5133241;27;20206;-84
2023/10/09 01:05:19;;;;;;;8.20;2.83;;;;;;;-143.21;55.20;72270.50;5132854;27;20199;-84
2023/10/09 01:07:50;;;;;;;11.02;2.70;;;;;;;-143.21;55.57;72282.38;5133595;27;20218;-84
2023/10/09 01:10:18;;;;;;;6.88;2.33;;;;;;;-143.21;55.98;72320.06;5133087;27;20216;-84
2023/10/09 01:12:48;;;;;;;3.87;2.33;;;;;;;-143.21;55.88;72343.88;5133173;27;20299;-84
2023/10/09 01:15:36;;;;;;;10.82;2.65;;;;;;;-143.21;55.90;72351.78;5133169;27;20203;-84
2023/10/09 01:18:04;;;;;;;13.83;2.40;;;;;;;-143.21;55.87;72359.72;5130341;27;20199;-83
2023/10/09 01:20:41;;;;;;;4.40;2.47;;;;;;;-143.21;55.60;72359.72;5132141;27;20195;-83
2023/10/09 01:23:12;;;;;;;4.17;2.00;;;;;;;-143.21;55.51;72351.78;5131506;27;20688;-83
2023/10/09 01:25:49;;;;;;;8.53;2.37;;;;;;;-143.21;55.60;72363.69;5132841;27;20195;-84
2023/10/09 01:28:16;;;;;;;6.70;2.40;;;;;;;-143.21;55.82;72383.53;5131292;27;20219;-81
2023/10/09 01:30:47;;;;;;;10.83;3.13;;;;;;;-143.21;55.82;72387.50;5130671;27;20243;-82
2023/10/09 01:33:19;;;;;;;9.60;2.60;;;;;;;-143.21;55.89;72391.47;5130312;27;20203;-83
2023/10/09 01:35:50;;;;;;;5.90;2.50;;;;;;;-143.21;56.29;72417.25;5131835;27;20251;-82
2023/10/09 01:38:18;;;;;;;6.60;2.90;;;;;;;-143.21;56.47;72419.22;5131876;27;21149;-82
2023/10/09 01:40:51;;;;;;;5.90;2.43;;;;;;;-143.21;56.67;72429.16;5132419;27;20215;-82
2023/10/09 01:43:19;;;;;;;8.43;2.37;;;;;;;-143.21;56.35;72423.19;5131565;27;20243;-81
2023/10/09 01:45:46;;;;;;;6.90;2.60;;;;;;;-143.21;56.82;72443.03;5132369;27;20215;-81
2023/10/09 01:48:22;;;;;;;9.63;2.80;;;;;;;-143.21;56.43;72448.97;5130907;27;20258;-81
2023/10/09 01:50:49;;;;;;;11.03;2.60;;;;;;;-143.21;56.24;72448.97;5132355;27;20250;-82
2023/10/09 01:53:22;;;;;;;8.00;2.70;;;;;;;-143.21;56.66;72484.66;5132041;27;20218;-82
2023/10/09 01:55:49;;;;;;;7.93;2.50;;;;;;;-143.21;56.79;72484.66;5131895;27;20240;-82
2023/10/09 01:58:24;;;;;;;5.40;2.30;;;;;;;-143.21;56.80;72486.66;5131635;27;20835;-83
2023/10/09 02:00:54;;;;;;;6.03;2.60;;;;;;;-143.21;56.55;72490.63;5128324;27;20542;-84
2023/10/09 02:03:25;;;;;;;8.90;2.70;;;;;;;-143.21;56.84;72492.59;5132563;27;20195;-84
2023/10/09 02:05:52;;;;;;;5.03;2.67;;;;;;;-143.21;56.98;72518.38;5129322;27;20697;-83
2023/10/09 02:08:26;;;;;;;3.47;2.30;;;;;;;-143.21;56.75;72526.31;5131996;27;20226;-82
2023/10/09 02:10:55;;;;;;;10.13;2.33;;;;;;;-143.21;56.72;72522.34;5132290;27;20263;-83
2023/10/09 02:13:29;;;;;;;4.97;2.93;;;;;;;-143.21;56.85;72522.34;5132342;27;20227;-83
2023/10/09 02:16:12;;;;;;;7.73;2.77;;;;;;;-143.21;56.66;72534.25;5132617;27;20203;-83
2023/10/09 02:18:52;;;;;;;6.30;2.50;;;;;;;-143.21;57.26;72554.09;5130712;27;20194;-83
2023/10/09 02:21:28;;;;;;;11.60;2.60;;;;;;;-143.21;57.15;72548.13;5131982;27;20195;-83
2023/10/09 02:23:57;;;;;;;4.97;2.40;;;;;;;-143.21;57.36;72560.03;5131946;27;20684;-83
2023/10/09 02:26:26;;;;;;;5.77;2.60;;;;;;;-143.21;57.50;72569.94;5128964;27;20230;-84
2023/10/09 02:28:58;;;;;;;5.03;2.43;;;;;;;-143.21;57.46;72571.94;5132429;27;20233;-83
2023/10/09 02:31:27;;;;;;;6.17;2.47;;;;;;;-143.21;57.55;72577.88;5129093;27;20198;-84
2023/10/09 02:33:55;;;;;;;5.73;2.40;;;;;;;-143.21;58.11;72591.78;5128358;27;20192;-83
2023/10/09 02:36:22;;;;;;;6.67;2.30;;;;;;;-143.21;58.61;72601.69;5131974;27;20282;-83
2023/10/09 02:38:48;;;;;;;6.83;2.23;;;;;;;-143.21;58.31;72609.63;5132582;27;20210;-83
2023/10/09 02:41:22;;;;;;;7.70;2.33;;;;;;;-143.21;58.48;72617.56;5131412;27;20627;-83
2023/10/09 02:43:50;;;;;;;11.50;2.30;;;;;;;-143.21;58.62;72637.38;5131529;27;20248;-83
2023/10/09 02:46:19;;;;;;;9.10;2.47;;;;;;;-143.21;59.00;72647.31;5131908;28;20198;-83
2023/10/09 02:48:50;;;;;;;6.73;2.33;;;;;;;-143.21;58.60;72645.31;5131335;28;20230;-83
2023/10/09 02:51:32;;;;;;;5.63;2.40;;;;;;;-143.21;58.47;72637.38;5131919;28;20235;-83
2023/10/09 02:54:07;;;;;;;4.27;2.23;;;;;;;-143.21;58.83;72661.19;5131609;28;20218;-83
2023/10/09 02:56:42;;;;;;;8.23;2.20;;;;;;;-143.21;59.00;72657.22;5131614;28;20203;-83
2023/10/09 02:59:10;;;;;;;5.23;2.40;;;;;;;-143.21;58.77;72657.22;5133587;27;20268;-84
2023/10/09 03:01:41;;;;;;;3.93;2.30;;;;;;;-143.21;58.63;72663.16;5134139;27;20210;-84
2023/10/09 03:04:10;;;;;;;6.60;2.10;;;;;;;-143.21;58.60;72669.13;5134568;27;20588;-83
2023/10/09 03:06:43;;;;;;;7.60;2.60;;;;;;;-143.21;58.59;72661.19;5135310;27;20217;-84
2023/10/09 03:09:17;;;;;;;5.33;2.30;;;;;;;-143.21;59.02;72698.88;5135032;27;20299;-84
2023/10/09 03:11:47;;;;;;;4.07;2.40;;;;;;;-143.21;59.05;72706.81;5135812;27;20252;-84
2023/10/09 03:14:15;;;;;;;3.77;2.20;;;;;;;-143.21;59.40;72720.69;5135219;27;20203;-84
2023/10/09 03:16:42;;;;;;;5.47;2.17;;;;;;;-143.21;59.42;72724.66;5134983;27;20210;-84
2023/10/09 03:19:10;;;;;;;4.73;2.00;;;;;;;-143.21;59.24;72738.53;5135628;27;20203;-84
2023/10/09 03:21:37;;;;;;;5.57;2.20;;;;;;;-143.21;59.27;72742.50;5135735;27;20199;-84
2023/10/09 03:24:06;;;;;;;6.77;2.23;;;;;;;-143.21;59.31;72742.50;5133361;27;20590;-84
2023/10/09 03:26:33;;;;;;;3.57;1.90;;;;;;;-143.21;59.31;72762.34;5134625;27;20259;-82
2023/10/09 03:29:06;;;;;;;6.80;1.90;;;;;;;-143.21;59.11;72758.38;5135106;27;20238;-83
2023/10/09 03:31:33;;;;;;;9.90;2.30;;;;;;;-143.21;58.91;72760.34;5135386;27;20274;-83
2023/10/09 03:34:00;;;;;;;4.00;1.90;;;;;;;-143.21;59.21;72774.25;5135973;27;20207;-83
2023/10/09 03:36:28;;;;;;;5.90;2.07;;;;;;;-143.21;59.13;72786.13;5136311;27;20207;-84
2023/10/09 03:38:57;;;;;;;7.37;1.93;;;;;;;-143.21;59.91;72807.97;5136273;27;20202;-83
2023/10/09 03:41:26;;;;;;;3.97;1.83;;;;;;;-143.21;59.65;72802.00;5132550;27;20244;-83
2023/10/09 03:43:54;;;;;;;6.50;1.90;;;;;;;-143.21;59.50;72802.00;5133139;27;20232;-83
2023/10/09 03:46:26;;;;;;;4.13;1.80;;;;;;;-143.21;59.40;72819.84;5134702;27;20589;-84
2023/10/09 03:48:56;;;;;;;5.03;2.00;;;;;;;-143.21;59.53;72811.94;5134795;27;20223;-83
2023/10/09 03:51:23;;;;;;;3.60;1.90;;;;;;;-143.21;59.37;72817.88;5131838;27;20187;-84
2023/10/09 03:53:52;;;;;;;6.17;2.10;;;;;;;-143.21;59.00;72815.88;5131357;27;20207;-84
2023/10/09 03:56:21;;;;;;;4.17;1.87;;;;;;;-143.21;58.90;72815.88;5134505;27;20657;-85
2023/10/09 03:58:49;;;;;;;4.80;2.00;;;;;;;-143.21;58.45;72813.91;5134479;27;20597;-83
2023/10/09 04:01:22;;;;;;;5.33;1.90;;;;;;;-143.21;58.95;72849.59;5134634;27;20738;-84
2023/10/09 04:03:54;;;;;;;5.50;1.90;;;;;;;-143.21;59.76;72873.41;5131353;27;20223;-84
2023/10/09 04:06:22;;;;;;;3.93;1.90;;;;;;;-143.21;59.63;72881.34;5136573;27;20199;-83
2023/10/09 04:08:51;;;;;;;3.13;1.57;;;;;;;-143.21;60.13;72897.22;5135442;27;20342;-84
2023/10/09 04:11:22;;;;;;;5.83;1.60;;;;;;;-143.21;59.81;72901.19;5133553;27;20293;-84
2023/10/09 04:13:49;;;;;;;2.83;1.53;;;;;;;-143.21;59.27;72891.25;5134769;27;20190;-84
2023/10/09 04:16:50;;;;;;;3.37;1.57;;;;;;;-143.21;59.04;72877.38;5134761;27;20240;-83
2023/10/09 04:19:21;;;;;;;4.80;1.80;;;;;;;-143.21;58.37;72875.41;5133932;27;20198;-84
2023/10/09 04:21:48;;;;;;;4.00;1.53;;;;;;;-143.21;58.08;72879.38;5133726;27;20231;-84
2023/10/09 04:24:24;;;;;;;3.27;2.10;;;;;;;-143.21;57.66;72883.31;5133677;27;20239;-84
2023/10/09 04:26:56;;;;;;;6.73;1.70;;;;;;;-143.21;57.71;72889.28;5131048;27;20211;-84
2023/10/09 04:29:38;;;;;;;5.87;1.70;;;;;;;-143.21;57.94;72905.16;5130568;27;20612;-84
2023/10/09 04:32:07;;;;;;;2.87;2.10;;;;;;;-143.21;58.23;72913.09;5130589;27;20195;-82
2023/10/09 04:34:36;;;;;;;5.10;2.00;;;;;;;-143.21;58.36;72930.94;5132932;27;20286;-85
2023/10/09 04:37:19;;;;;;;3.87;1.77;;;;;;;-143.21;58.18;72926.97;5131748;27;20199;-83
2023/10/09 04:40:01;;;;;;;3.63;1.50;;;;;;;-143.21;58.68;72938.88;5132890;27;20198;-82
2023/10/09 04:42:36;;;;;;;4.00;1.50;;;;;;;-143.21;58.42;72950.78;5129465;27;20710;-81
2023/10/09 04:47:57;;;;;;;3.47;1.80;;;;;;;-143.21;57.64;72936.88;5131408;27;20677;-77
2023/10/09 04:50:58;;;;;;;7.20;1.80;;;;;;;-143.21;57.29;72930.94;5128229;27;20278;-76
2023/10/09 04:53:28;;;;;;;6.27;1.90;;;;;;;-143.21;57.02;72928.94;5128054;27;20195;-76
2023/10/09 04:55:54;;;;;;;7.27;2.20;;;;;;;-143.21;56.66;72923.00;5128093;27;20658;-77
2023/10/09 04:58:25;;;;;;;5.43;1.83;;;;;;;-143.21;55.76;72911.09;5131338;27;20248;-76
2023/10/09 05:01:04;;;;;;;6.40;1.73;;;;;;;-143.21;55.38;72909.13;5127865;27;20646;-75
2023/10/09 05:03:43;;;;;;;5.17;1.83;;;;;;;-143.21;55.03;72915.06;5128581;27;20210;-77
2023/10/09 05:06:42;;;;;;;5.47;1.80;;;;;;;-143.21;55.36;72934.91;5130718;27;20287;-77
2023/10/09 05:09:13;;;;;;;7.50;2.50;;;;;;;-143.21;55.23;72942.84;5130212;27;20237;-77
2023/10/09 05:12:15;;;;;;;6.57;2.00;;;;;;;-143.21;55.32;72944.81;5131079;27;20191;-77
2023/10/09 05:15:04;;;;;;;6.20;2.10;;;;;;;-143.21;55.59;72944.81;5130749;27;20274;-82
2023/10/09 05:17:28;;;;;;;12.23;2.73;;;;;;;-143.21;54.92;72932.91;5129380;27;20234;-81
2023/10/09 05:20:55;;;;;;;6.67;2.40;;;;;;;-143.21;54.53;72936.88;5132410;27;20286;-81
2023/10/09 05:22:56;;;;;;;7.27;2.13;;;;;;;-143.21;54.53;72938.88;5129225;27;20215;-82
2023/10/09 05:25:53;;;;;;;7.00;2.17;;;;;;;-143.21;54.51;72934.91;5131574;27;20738;-82
2023/10/09 05:28:48;;;;;;;7.40;2.40;;;;;;;-143.21;54.24;72944.81;5131291;27;20310;-82
2023/10/09 05:31:56;;;;;;;4.37;1.67;;;;;;;-143.21;53.65;72946.81;5131885;27;20898;-82
2023/10/09 05:34:02;;;;;;;3.10;1.60;;;;;;;-143.21;53.66;72956.72;5129359;27;20278;-82
2023/10/09 05:36:35;;;;;;;5.03;1.70;;;;;;;-143.21;53.38;72960.69;5132206;27;20191;-83
2023/10/09 05:39:18;;;;;;;5.77;1.97;;;;;;;-143.21;53.39;72958.69;5132208;27;20593;-82
2023/10/09 05:41:52;;;;;;;2.70;1.60;;;;;;;-143.21;53.39;72956.72;5132441;27;20245;-84
2023/10/09 05:47:31;;;;;;;7.80;1.90;;;;;;;-143.21;53.53;72978.53;5130830;27;20198;-82
2023/10/09 05:53:05;;;;;;;4.70;1.90;;;;;;;-143.21;53.26;72972.59;5131076;27;20198;-82
2023/10/09 06:03:53;;;;;;;4.43;1.70;;;;;;;-143.21;51.31;72978.53;5130530;27;20704;-81
2023/10/09 06:06:33;;;;;;;2.17;1.40;;;;;;;-143.21;51.41;72980.53;5130728;27;20207;-81
2023/10/09 06:09:49;;;;;;;6.37;1.70;;;;;;;-143.21;51.31;72994.41;5128733;27;20668;-82
2023/10/09 06:14:57;;;;;;;5.23;1.90;;;;;;;-143.21;50.33;72998.38;5131123;27;20343;-81
2023/10/09 06:17:24;;;;;;;2.10;1.73;;;;;;;-143.21;49.99;73008.28;5127652;27;20199;-82
2023/10/09 06:19:58;;;;;;;4.37;1.67;;;;;;;-143.21;50.07;73008.28;5131305;27;20600;-83
2023/10/09 06:25:17;;;;;;;3.70;1.50;;;;;;;-143.21;49.80;72996.38;5126872;27;20260;-83
2023/10/09 06:27:58;;;;;;;1.70;1.60;;;;;;;-143.21;49.80;72994.41;5130667;27;20222;-83
2023/10/09 06:30:24;;;;;;;2.57;1.60;;;;;;;-143.21;49.81;72990.44;5127075;27;20203;-84
2023/10/09 06:32:57;;;;;;;3.73;2.50;;;;;;;-143.21;48.96;72984.50;5130637;27;20304;-83
2023/10/09 06:35:30;;;;;;;4.30;1.50;;;;;;;-143.21;49.02;72980.53;5131226;27;20195;-82
2023/10/09 06:43:47;;;;;;;2.40;1.67;;;;;;;-143.21;46.90;72976.56;5129583;27;20211;-80
2023/10/09 06:49:15;;;;;;;2.37;1.70;;;;;;;-143.21;47.16;72962.66;5128243;28;20769;-81
2023/10/09 06:51:41;;;;;;;5.00;1.73;;;;;;;-143.21;47.53;72960.69;5130305;28;20294;-81
2023/10/09 06:54:09;;;;;;;7.40;1.83;;;;;;;-143.21;47.42;72948.78;5130254;28;20278;-82
2023/10/09 06:59:24;;;;;;;5.50;1.90;;;;;;;-143.21;46.27;72940.84;5131039;28;20179;-81
2023/10/09 07:07:26;;;;;;;3.47;1.70;;;;;;;-143.21;44.93;72923.00;5107866;27;20932;-80
2023/10/09 07:12:42;;;;;;;3.27;1.90;;;;;;;-143.21;45.11;72926.97;5106538;28;20277;-80
2023/10/09 07:17:55;;;;;;;3.67;2.63;;;;;;;-143.21;45.32;72923.00;5104269;28;20191;-80
2023/10/09 07:20:38;;;;;;;3.77;2.00;;;;;;;-143.21;44.77;72923.00;5107545;28;20669;-80
2023/10/09 07:23:15;;;;;;;2.93;1.70;;;;;;;-143.21;43.77;72905.16;5106198;28;20279;-81
2023/10/09 07:25:54;;;;;;;3.50;1.80;;;;;;;-143.21;44.16;72901.19;5106009;28;20222;-81
2023/10/09 07:28:42;;;;;;;7.87;2.07;;;;;;;-143.21;43.94;72887.28;5105413;28;20200;-81
2023/10/09 07:31:23;;;;;;;3.17;1.73;;;;;;;-143.21;44.40;72891.25;5104257;28;20196;-80
2023/10/09 07:33:56;;;;;;;5.63;2.17;;;;;;;-143.21;43.22;72897.22;5103324;28;20195;-80
2023/10/09 07:36:34;;;;;;;1.87;1.63;;;;;;;-143.21;42.81;72893.25;5103843;28;20200;-82
2023/10/09 07:39:02;;;;;;;2.30;1.77;;;;;;;-143.21;43.22;72881.34;5105154;28;20210;-81
2023/10/09 07:41:44;;;;;;;4.80;1.73;;;;;;;-143.21;42.61;72867.47;5106846;28;20204;-82
2023/10/09 07:44:34;;;;;;;3.00;1.73;;;;;;;-143.21;42.09;72873.41;5106687;28;20210;-82
2023/10/09 07:47:17;;;;;;;3.10;1.80;;;;;;;-143.21;42.16;72871.44;5104285;28;20250;-79
2023/10/09 07:49:48;;;;;;;7.00;2.07;;;;;;;-143.21;42.05;72873.41;5106979;28;20252;-79
2023/10/09 07:52:16;;;;;;;4.00;1.90;;;;;;;-143.21;41.57;72855.56;5106737;28;20204;-82
2023/10/09 07:54:52;;;;;;;5.13;1.87;;;;;;;-143.21;40.66;72847.63;5107157;28;20216;-81
2023/10/09 07:57:25;;;;;;;2.27;1.87;;;;;;;-143.21;40.03;72831.75;5108605;28;20210;-81
2023/10/09 08:00:00;;;;;;;2.23;1.70;;;;;;;-143.21;39.75;72841.69;5108323;28;20185;-81
2023/10/09 08:02:32;;;;;;;3.30;1.80;;;;;;;-143.21;40.15;72839.69;5108344;28;20227;-81
2023/10/09 08:05:06;;;;;;;3.17;1.83;;;;;;;-143.21;40.04;72831.75;5108571;28;20620;-80
2023/10/09 08:07:37;;;;;;;5.40;2.30;;;;;;;-143.21;39.42;72813.91;5108428;28;20601;-81
2023/10/09 08:12:58;;;;;;;3.27;2.40;;;;;;;-143.21;38.68;72798.03;5108512;28;20195;-80
2023/10/09 08:15:34;;;;;;;3.00;2.00;;;;;;;-143.21;38.28;72778.22;5109230;28;20187;-81
2023/10/09 08:18:09;;;;;;;4.83;1.50;;;;;;;-143.21;38.45;72772.25;5099651;28;20208;-81
2023/10/09 08:21:19;;;;;;;7.27;2.00;;;;;;;-143.21;37.83;72740.53;5094685;28;20655;-81
2023/10/09 08:23:49;;;;;;;1.90;1.40;;;;;;;-143.21;37.52;72734.56;5094394;28;20217;-81
2023/10/09 08:26:28;;;;;;;3.50;1.73;;;;;;;-143.21;36.92;72724.66;5094761;28;20261;-81
2023/10/09 08:29:15;;;;;;;5.40;1.90;;;;;;;-143.21;37.33;72732.59;5094609;28;20180;-82
2023/10/09 08:31:46;;;;;;;1.73;1.50;;;;;;;-143.21;37.10;72716.72;5094525;28;20183;-81
2023/10/09 08:34:24;;;;;;;3.10;2.10;;;;;;;-143.21;37.03;72704.81;5094549;28;20220;-81
2023/10/09 08:36:53;;;;;;;5.30;1.90;;;;;;;-143.21;36.89;72677.06;5094145;28;20632;-81
2023/10/09 08:39:26;;;;;;;2.10;1.53;;;;;;;-143.21;36.69;72655.25;5094419;28;20246;-82
2023/10/09 08:41:57;;;;;;;4.23;1.70;;;;;;;-143.21;36.63;72643.34;5094668;28;20280;-81
2023/10/09 08:44:27;;;;;;;2.33;1.67;;;;;;;-143.21;36.13;72609.63;5094083;28;20652;-81
2023/10/09 08:46:55;;;;;;;5.57;1.60;;;;;;;-143.21;35.78;72585.81;5094040;28;20220;-81
2023/10/09 08:49:22;;;;;;;4.63;1.50;;;;;;;-143.21;35.58;72564.00;5094063;28;20193;-81
2023/10/09 08:51:49;;;;;;;5.60;1.63;;;;;;;-143.21;34.79;72538.22;5093930;28;20196;-81
2023/10/09 08:54:16;;;;;;;5.30;1.80;;;;;;;-143.21;34.41;72500.53;5093345;28;20204;-81
2023/10/09 08:56:49;;;;;;;1.70;1.50;;;;;;;-143.21;33.61;72456.91;5093443;28;20192;-80
2023/10/09 08:59:19;;;;;;;2.60;1.30;;;;;;;-143.21;33.26;72441.03;5093570;28;20330;-82
2023/10/09 09:01:49;;;;;;;3.73;1.70;;;;;;;-143.21;32.60;72423.19;5093853;28;20197;-81
2023/10/09 09:04:38;;;;;;;6.38;1.60;;;;;;;-143.21;31.67;72397.41;5093802;28;20641;-81
2023/10/09 09:07:05;;;;;;;2.10;1.52;;;;;;;-143.21;31.36;72357.75;5093328;28;20236;-82
2023/10/09 09:09:33;;;;;;;2.20;1.55;;;;;;;-143.21;31.20;72357.75;5094005;28;20197;-82
2023/10/09 09:12:01;;;;;;;5.07;1.60;;;;;;;-143.21;31.36;72343.88;5093800;28;20201;-82
2023/10/09 09:14:38;;;;;;;3.42;1.77;;;;;;;-143.21;30.28;72316.09;5093496;28;20674;-81
2023/10/09 09:17:10;;;;;;;5.90;1.88;;;;;;;-143.21;30.78;72276.44;5093284;28;20605;-80
2023/10/09 09:19:38;;;;;;;1.90;1.60;;;;;;;-143.21;30.43;72236.78;5093882;28;20192;-81
2023/10/09 09:22:12;;;;;;;4.38;1.60;;;;;;;-143.21;29.76;72187.19;5093511;28;20197;-81
2023/10/09 09:24:45;;;;;;;2.42;1.60;;;;;;;-143.21;29.42;72133.66;5082189;28;20202;-81
2023/10/09 09:27:18;;;;;;;2.17;1.60;;;;;;;-143.21;28.34;72121.75;5073063;28;20699;-81
2023/10/09 09:29:53;;;;;;;3.83;1.35;;;;;;;-143.21;28.97;72177.28;5072040;28;20193;-81
2023/10/09 09:32:35;;;;;;;1.88;1.60;;;;;;;-143.21;29.69;72185.22;5073045;28;20192;-81
2023/10/09 09:35:04;;;;;;;2.10;1.80;;;;;;;-143.21;29.38;72119.78;5073158;28;20208;-82
2023/10/09 09:37:50;;;;;;;2.13;1.80;;;;;;;-143.21;28.52;72050.38;5073288;28;20228;-82
2023/10/09 09:40:29;;;;;;;4.85;1.90;;;;;;;-143.21;27.87;72024.59;5073045;28;20708;-81
2023/10/09 09:43:04;;;;;;;1.80;1.60;;;;;;;-143.21;27.78;72026.56;5072992;28;20203;-82
2023/10/09 09:45:33;;;;;;;5.22;1.95;;;;;;;-143.21;27.45;72000.78;5072597;28;20185;-82
2023/10/09 09:48:05;;;;;;;5.85;1.73;;;;;;;-143.21;27.04;72010.72;5072677;28;20228;-81
2023/10/09 09:50:32;;;;;;;2.67;2.10;;;;;;;-143.21;27.14;71957.16;5072812;28;20527;-84
2023/10/09 09:53:00;;;;;;;3.22;1.70;;;;;;;-143.21;26.81;71923.47;5073040;28;20197;-83
2023/10/09 09:55:34;;;;;;;5.38;1.83;;;;;;;-143.21;26.49;71903.63;5072769;28;20197;-83
2023/10/09 09:58:06;;;;;;;1.80;1.60;;;;;;;-143.21;26.49;71935.34;5073431;28;20721;-83
2023/10/09 10:00:43;;;;;;;3.95;1.73;;;;;;;-143.21;26.58;71875.88;5072690;28;20207;-82
2023/10/09 10:03:13;;;;;;;4.32;1.50;;;;;;;-143.21;25.97;71792.59;5073165;28;20191;-83
2023/10/09 10:05:46;;;;;;;3.38;1.77;;;;;;;-143.21;25.34;71737.06;5072869;28;20226;-82
2023/10/09 10:08:19;;;;;;;4.93;1.85;;;;;;;-143.21;25.01;71717.25;5072638;28;20245;-82
2023/10/09 10:10:52;;;;;;;8.30;1.92;;;;;;;-143.21;24.97;71705.34;5073057;28;20181;-82
2023/10/09 10:13:41;;;;;;;10.55;2.20;;;;;;;-143.21;24.63;71711.28;5073113;28;20189;-82
2023/10/09 10:16:13;;;;;;;3.55;2.15;;;;;;;-143.21;24.45;71691.47;5072788;28;20193;-82
2023/10/09 10:18:59;;;;;;;6.82;3.97;;;;;;;-143.21;24.14;71665.69;5072749;28;20243;-82
2023/10/09 10:21:40;;;;;;;4.60;2.88;;;;;;;-143.21;24.24;71661.72;5072788;28;20214;-82
2023/10/09 10:24:52;;;;;;;4.15;2.10;;;;;;;-143.21;24.30;71641.91;5072122;28;20193;-83
2023/10/09 10:27:24;;;;;;;2.70;1.70;;;;;;;-143.21;24.32;71592.31;5089438;28;20263;-81
2023/10/09 10:30:25;;;;;;;2.08;1.60;;;;;;;-143.21;23.75;71524.91;5093172;28;20187;-82
2023/10/09 10:32:58;;;;;;;2.05;1.52;;;;;;;-143.21;24.06;71562.59;5092442;28;20192;-79
2023/10/09 10:35:39;;;;;;;2.53;1.60;;;;;;;-143.21;24.63;71602.25;5092388;28;20271;-80
2023/10/09 10:38:23;;;;;;;1.95;1.40;;;;;;;-143.21;24.61;71600.25;5092505;28;20275;-79
2023/10/09 10:40:57;;;;;;;2.85;1.75;;;;;;;-143.21;24.87;71568.53;5091863;28;20181;-80
2023/10/09 10:43:32;;;;;;;3.03;2.10;;;;;;;-143.21;24.26;71513.03;5092605;28;20189;-80
2023/10/09 10:46:04;;;;;;;5.18;2.00;;;;;;;-143.21;24.74;71479.31;5091848;28;20192;-80
2023/10/09 10:48:38;;;;;;;3.15;1.55;;;;;;;-143.21;24.53;71459.47;5092028;28;20275;-80
2023/10/09 10:51:06;;;;;;;2.30;1.58;;;;;;;-143.21;24.53;71405.94;5091943;28;20263;-80
2023/10/09 10:53:47;;;;;;;6.03;2.20;;;;;;;-143.21;23.85;71384.16;5092107;28;20212;-79
2023/10/09 10:56:18;;;;;;;5.13;2.20;;;;;;;-143.21;23.81;71374.22;5073339;28;20303;-80
2023/10/09 10:59:11;;;;;;;3.47;2.25;;;;;;;-143.21;24.17;71378.19;5072342;28;20182;-79
2023/10/09 11:01:52;;;;;;;4.40;1.85;;;;;;;-143.21;24.15;71366.31;5072098;28;20188;-80
2023/10/09 11:04:41;;;;;;;2.58;1.52;;;;;;;-143.21;24.19;71396.03;5071928;28;20271;-80
2023/10/09 11:07:12;;;;;;;3.47;1.52;;;;;;;-143.21;23.93;71366.31;5069878;28;20233;-80
2023/10/09 11:09:59;;;;;;;6.25;2.10;;;;;;;-143.21;23.79;71316.75;5071743;28;20200;-80
2023/10/09 11:12:37;;;;;;;4.75;2.60;;;;;;;-143.21;23.53;71239.41;5071996;28;20181;-80
2023/10/09 11:15:18;;;;;;;7.20;4.40;;;;;;;-143.21;23.21;71233.47;5071795;28;20189;-80
2023/10/09 11:17:45;;;;;;;9.63;5.43;;;;;;;-143.21;23.08;71168.06;5071915;28;20238;-80
2023/10/09 11:20:24;;;;;;;11.30;6.95;;;;;;;-143.21;22.93;71122.44;5083269;28;20208;-80
2023/10/09 11:23:14;;;;;;;9.40;6.00;;;;;;;-143.21;22.38;71059.00;5091272;28;20196;-80
2023/10/09 11:25:50;;;;;;;11.00;5.55;;;;;;;-143.21;22.64;71013.41;5092081;28;20211;-80
2023/10/09 11:28:29;;;;;;;5.88;3.22;;;;;;;-143.21;22.33;71009.44;5091631;28;20216;-80
2023/10/09 11:31:06;;;;;;;3.47;2.10;;;;;;;-143.21;22.06;71019.38;5091190;28;20600;-80
2023/10/09 11:33:44;;;;;;;12.57;7.65;;;;;;;-143.21;22.04;71078.84;5091699;28;20200;-80
2023/10/09 11:36:11;;;;;;;15.75;8.45;;;;;;;-143.21;22.38;71094.69;5091441;28;20245;-80
2023/10/09 11:38:38;;;;;;;9.35;5.97;;;;;;;-143.21;22.63;71112.53;5091198;28;20196;-80
2023/10/09 11:41:18;;;;;;;10.00;7.50;;;;;;;-143.21;22.40;71096.69;5091104;28;20248;-80
2023/10/09 11:43:53;;;;;;;8.63;4.47;;;;;;;-143.21;22.79;71102.63;5091489;28;20701;-80
2023/10/09 11:49:26;;;;;;;8.55;5.97;;;;;;;-143.21;22.96;71164.09;5080642;28;20193;-80
2023/10/09 11:54:50;;;;;;;8.02;4.80;;;;;;;-143.21;22.70;71082.81;5094768;28;20245;-80
2023/10/09 11:57:17;;;;;;;7.03;3.72;;;;;;;-143.21;22.52;71033.25;5094758;28;20578;-81
2023/10/09 11:59:44;;;;;;;5.97;3.10;;;;;;;-143.21;22.32;71023.34;5094529;28;20196;-80
2023/10/09 12:02:12;;;;;;;3.28;2.70;;;;;;;-143.21;22.29;71003.50;5095023;28;20200;-80
2023/10/09 12:04:41;;;;;;;5.75;2.60;;;;;;;-143.21;21.89;70977.72;5094848;28;20199;-80
2023/10/09 12:07:10;;;;;;;4.78;3.33;;;;;;;-143.21;22.22;70967.81;5094693;28;20231;-80
2023/10/09 12:09:37;;;;;;;6.10;3.30;;;;;;;-143.21;22.31;70963.84;5094896;28;20246;-81
2023/10/09 12:12:07;;;;;;;4.15;3.08;;;;;;;-143.21;21.87;70967.81;5095099;28;20197;-80
2023/10/09 12:14:37;;;;;;;4.15;3.22;;;;;;;-143.21;22.07;70924.22;5094606;28;20193;-81
2023/10/09 12:17:06;;;;;;;2.00;1.70;;;;;;;-143.21;21.22;70900.41;5094758;28;20181;-80
2023/10/09 12:19:34;;;;;;;4.45;1.80;;;;;;;-143.21;21.80;70900.41;5094655;28;20224;-80
2023/10/09 12:22:01;;;;;;;2.53;1.60;;;;;;;-143.21;21.46;70886.53;5094944;28;20232;-83
2023/10/09 12:24:30;;;;;;;3.08;1.33;;;;;;;-143.21;21.08;70910.34;5085185;28;20209;-82
2023/10/09 12:26:57;;;;;;;1.73;1.35;;;;;;;-143.21;20.97;70894.47;5074665;28;20282;-82
2023/10/09 12:29:29;;;;;;;1.40;1.27;;;;;;;-143.21;20.80;70880.59;5074613;28;20239;-82
2023/10/09 12:31:59;;;;;;;2.28;1.63;;;;;;;-143.21;20.99;70872.66;5074688;28;20190;-82
2023/10/09 12:34:26;;;;;;;5.18;1.70;;;;;;;-143.21;20.74;70854.84;5074143;28;20635;-82
2023/10/09 12:36:54;;;;;;;2.88;1.55;;;;;;;-143.21;20.53;70827.06;5074669;28;20272;-82
2023/10/09 12:39:21;;;;;;;3.83;1.50;;;;;;;-143.21;20.65;70801.31;5074378;28;20225;-82
2023/10/09 12:41:53;;;;;;;3.45;1.70;;;;;;;-143.21;20.78;70860.78;5074605;28;20201;-82